sensor_id;sensor_type;location;lat;lon;timestamp;P1;durP1;ratioP1;P2;durP2;ratioP2
75820;SDS011;64454;51.984;9.838;2022-12-18T00:02:22;19.95;;;12.15;;
75820;SDS011;64454;51.984;9.838;2022-12-18T00:04:49;19.48;;;12.15;;
75820;SDS011;64454;51.984;9.838;2022-12-18T00:07:16;19.92;;;11.50;;
75820;SDS011;64454;51.984;9.838;2022-12-18T00:09:43;16.33;;;10.88;;
75820;SDS011;64454;51.984;9.838;2022-12-18T00:12:11;18.13;;;12.60;;
75820;SDS011;64454;51.984;9.838;2022-12-18T00:14:38;20.80;;;13.23;;
75820;SDS011;64454;51.984;9.838;2022-12-18T00:17:05;23.02;;;12.85;;
75820;SDS011;64454;51.984;9.838;2022-12-18T00:19:32;20.02;;;12.07;;
75820;SDS011;64454;51.984;9.838;2022-12-18T00:21:58;22.23;;;12.60;;
75820;SDS011;64454;51.984;9.838;2022-12-18T00:24:25;21.45;;;12.45;;
75820;SDS011;64454;51.984;9.838;2022-12-18T00:26:52;18.70;;;11.23;;
75820;SDS011;64454;51.984;9.838;2022-12-18T00:29:20;17.90;;;11.00;;
75820;SDS011;64454;51.984;9.838;2022-12-18T00:31:48;16.70;;;11.95;;
75820;SDS011;64454;51.984;9.838;2022-12-18T00:34:14;22.40;;;12.48;;
75820;SDS011;64454;51.984;9.838;2022-12-18T00:36:41;17.27;;;11.45;;
75820;SDS011;64454;51.984;9.838;2022-12-18T00:39:09;17.20;;;11.63;;
75820;SDS011;64454;51.984;9.838;2022-12-18T00:41:37;19.15;;;11.93;;
75820;SDS011;64454;51.984;9.838;2022-12-18T00:44:23;18.48;;;12.10;;
75820;SDS011;64454;51.984;9.838;2022-12-18T00:46:50;23.05;;;11.55;;
75820;SDS011;64454;51.984;9.838;2022-12-18T00:49:17;19.63;;;11.35;;
75820;SDS011;64454;51.984;9.838;2022-12-18T00:51:46;18.83;;;11.50;;
75820;SDS011;64454;51.984;9.838;2022-12-18T00:54:13;17.60;;;11.60;;
75820;SDS011;64454;51.984;9.838;2022-12-18T00:56:41;21.23;;;12.03;;
75820;SDS011;64454;51.984;9.838;2022-12-18T00:59:08;18.02;;;11.23;;
75820;SDS011;64454;51.984;9.838;2022-12-18T01:01:36;14.60;;;9.82;;
75820;SDS011;64454;51.984;9.838;2022-12-18T01:04:03;16.60;;;10.48;;
75820;SDS011;64454;51.984;9.838;2022-12-18T01:06:31;20.15;;;11.50;;
75820;SDS011;64454;51.984;9.838;2022-12-18T01:08:58;16.40;;;11.00;;
75820;SDS011;64454;51.984;9.838;2022-12-18T01:11:25;19.10;;;11.00;;
75820;SDS011;64454;51.984;9.838;2022-12-18T01:13:52;16.95;;;11.30;;
75820;SDS011;64454;51.984;9.838;2022-12-18T01:16:20;17.63;;;11.38;;
75820;SDS011;64454;51.984;9.838;2022-12-18T01:18:50;19.08;;;11.23;;
75820;SDS011;64454;51.984;9.838;2022-12-18T01:21:20;15.43;;;10.90;;
75820;SDS011;64454;51.984;9.838;2022-12-18T01:23:50;15.50;;;10.35;;
75820;SDS011;64454;51.984;9.838;2022-12-18T01:26:19;15.32;;;10.50;;
75820;SDS011;64454;51.984;9.838;2022-12-18T01:28:47;17.85;;;11.45;;
75820;SDS011;64454;51.984;9.838;2022-12-18T01:31:18;17.17;;;10.45;;
75820;SDS011;64454;51.984;9.838;2022-12-18T01:33:47;18.48;;;10.70;;
75820;SDS011;64454;51.984;9.838;2022-12-18T01:36:17;17.45;;;10.63;;
75820;SDS011;64454;51.984;9.838;2022-12-18T01:38:46;19.42;;;10.88;;
75820;SDS011;64454;51.984;9.838;2022-12-18T01:41:14;16.27;;;10.27;;
75820;SDS011;64454;51.984;9.838;2022-12-18T01:43:46;20.73;;;12.52;;
75820;SDS011;64454;51.984;9.838;2022-12-18T01:46:17;19.20;;;11.65;;
75820;SDS011;64454;51.984;9.838;2022-12-18T01:48:47;19.63;;;11.77;;
75820;SDS011;64454;51.984;9.838;2022-12-18T01:51:18;16.30;;;11.13;;
75820;SDS011;64454;51.984;9.838;2022-12-18T01:53:45;16.98;;;11.38;;
75820;SDS011;64454;51.984;9.838;2022-12-18T01:56:15;21.83;;;12.13;;
75820;SDS011;64454;51.984;9.838;2022-12-18T01:58:48;24.45;;;13.95;;
75820;SDS011;64454;51.984;9.838;2022-12-18T02:01:21;19.40;;;11.73;;
75820;SDS011;64454;51.984;9.838;2022-12-18T02:03:51;20.70;;;11.70;;
75820;SDS011;64454;51.984;9.838;2022-12-18T02:06:19;21.17;;;12.43;;
75820;SDS011;64454;51.984;9.838;2022-12-18T02:08:58;22.88;;;13.10;;
75820;SDS011;64454;51.984;9.838;2022-12-18T02:11:40;21.60;;;12.10;;
75820;SDS011;64454;51.984;9.838;2022-12-18T02:14:20;19.08;;;11.20;;
75820;SDS011;64454;51.984;9.838;2022-12-18T02:16:57;19.55;;;11.85;;
75820;SDS011;64454;51.984;9.838;2022-12-18T02:22:34;19.70;;;12.67;;
75820;SDS011;64454;51.984;9.838;2022-12-18T02:25:20;19.35;;;11.52;;
75820;SDS011;64454;51.984;9.838;2022-12-18T02:28:17;18.00;;;11.30;;
75820;SDS011;64454;51.984;9.838;2022-12-18T02:30:49;18.15;;;10.80;;
75820;SDS011;64454;51.984;9.838;2022-12-18T02:33:19;17.25;;;10.93;;
75820;SDS011;64454;51.984;9.838;2022-12-18T02:35:52;17.00;;;11.30;;
75820;SDS011;64454;51.984;9.838;2022-12-18T02:38:23;19.53;;;10.17;;
75820;SDS011;64454;51.984;9.838;2022-12-18T02:40:51;16.77;;;10.80;;
75820;SDS011;64454;51.984;9.838;2022-12-18T02:43:21;18.90;;;10.80;;
75820;SDS011;64454;51.984;9.838;2022-12-18T02:45:49;15.52;;;9.77;;
75820;SDS011;64454;51.984;9.838;2022-12-18T02:48:21;14.98;;;10.05;;
75820;SDS011;64454;51.984;9.838;2022-12-18T02:50:55;14.73;;;11.18;;
75820;SDS011;64454;51.984;9.838;2022-12-18T02:53:31;17.83;;;10.50;;
75820;SDS011;64454;51.984;9.838;2022-12-18T02:56:09;15.73;;;10.13;;
75820;SDS011;64454;51.984;9.838;2022-12-18T02:58:47;17.35;;;10.50;;
75820;SDS011;64454;51.984;9.838;2022-12-18T03:01:28;16.30;;;10.68;;
75820;SDS011;64454;51.984;9.838;2022-12-18T03:04:05;18.02;;;10.60;;
75820;SDS011;64454;51.984;9.838;2022-12-18T03:06:41;15.20;;;10.27;;
75820;SDS011;64454;51.984;9.838;2022-12-18T03:09:15;15.65;;;9.95;;
75820;SDS011;64454;51.984;9.838;2022-12-18T03:11:51;21.13;;;10.10;;
75820;SDS011;64454;51.984;9.838;2022-12-18T03:14:42;15.13;;;9.60;;
75820;SDS011;64454;51.984;9.838;2022-12-18T03:17:15;15.47;;;10.60;;
75820;SDS011;64454;51.984;9.838;2022-12-18T03:19:48;14.77;;;9.85;;
75820;SDS011;64454;51.984;9.838;2022-12-18T03:22:19;15.38;;;9.95;;
75820;SDS011;64454;51.984;9.838;2022-12-18T03:24:50;14.45;;;9.57;;
75820;SDS011;64454;51.984;9.838;2022-12-18T03:27:20;12.38;;;8.77;;
75820;SDS011;64454;51.984;9.838;2022-12-18T03:29:52;13.67;;;9.53;;
75820;SDS011;64454;51.984;9.838;2022-12-18T03:32:33;15.30;;;10.52;;
75820;SDS011;64454;51.984;9.838;2022-12-18T03:35:06;15.68;;;9.65;;
75820;SDS011;64454;51.984;9.838;2022-12-18T03:37:37;14.10;;;8.85;;
75820;SDS011;64454;51.984;9.838;2022-12-18T03:40:05;14.73;;;9.48;;
75820;SDS011;64454;51.984;9.838;2022-12-18T03:42:36;15.02;;;9.60;;
75820;SDS011;64454;51.984;9.838;2022-12-18T03:45:17;17.70;;;9.97;;
75820;SDS011;64454;51.984;9.838;2022-12-18T03:48:01;16.23;;;10.17;;
75820;SDS011;64454;51.984;9.838;2022-12-18T03:50:36;16.63;;;9.63;;
75820;SDS011;64454;51.984;9.838;2022-12-18T03:53:16;16.58;;;10.18;;
75820;SDS011;64454;51.984;9.838;2022-12-18T03:55:54;14.73;;;9.55;;
75820;SDS011;64454;51.984;9.838;2022-12-18T03:58:24;11.65;;;8.80;;
75820;SDS011;64454;51.984;9.838;2022-12-18T04:00:56;15.10;;;9.47;;
75820;SDS011;64454;51.984;9.838;2022-12-18T04:03:27;16.52;;;9.75;;
75820;SDS011;64454;51.984;9.838;2022-12-18T04:05:57;13.90;;;9.18;;
75820;SDS011;64454;51.984;9.838;2022-12-18T04:08:27;13.90;;;9.35;;
75820;SDS011;64454;51.984;9.838;2022-12-18T04:10:55;14.73;;;9.70;;
75820;SDS011;64454;51.984;9.838;2022-12-18T04:13:22;14.53;;;9.13;;
75820;SDS011;64454;51.984;9.838;2022-12-18T04:15:50;15.43;;;9.15;;
75820;SDS011;64454;51.984;9.838;2022-12-18T04:18:19;14.18;;;9.77;;
75820;SDS011;64454;51.984;9.838;2022-12-18T04:20:46;14.02;;;9.02;;
75820;SDS011;64454;51.984;9.838;2022-12-18T04:23:13;14.85;;;9.43;;
75820;SDS011;64454;51.984;9.838;2022-12-18T04:25:40;13.68;;;9.10;;
75820;SDS011;64454;51.984;9.838;2022-12-18T04:28:07;14.05;;;9.20;;
75820;SDS011;64454;51.984;9.838;2022-12-18T04:30:33;15.18;;;9.65;;
75820;SDS011;64454;51.984;9.838;2022-12-18T04:33:00;15.23;;;9.63;;
75820;SDS011;64454;51.984;9.838;2022-12-18T04:35:29;16.15;;;9.75;;
75820;SDS011;64454;51.984;9.838;2022-12-18T04:37:56;16.35;;;9.60;;
75820;SDS011;64454;51.984;9.838;2022-12-18T04:40:23;15.73;;;10.23;;
75820;SDS011;64454;51.984;9.838;2022-12-18T04:42:49;16.30;;;9.90;;
75820;SDS011;64454;51.984;9.838;2022-12-18T04:45:16;14.80;;;9.00;;
75820;SDS011;64454;51.984;9.838;2022-12-18T04:47:43;14.05;;;8.70;;
75820;SDS011;64454;51.984;9.838;2022-12-18T04:50:10;15.18;;;9.20;;
75820;SDS011;64454;51.984;9.838;2022-12-18T04:52:39;18.95;;;10.90;;
75820;SDS011;64454;51.984;9.838;2022-12-18T04:55:06;15.20;;;9.82;;
75820;SDS011;64454;51.984;9.838;2022-12-18T04:57:33;14.93;;;10.10;;
75820;SDS011;64454;51.984;9.838;2022-12-18T05:00:00;17.83;;;10.65;;
75820;SDS011;64454;51.984;9.838;2022-12-18T05:02:27;16.83;;;10.07;;
75820;SDS011;64454;51.984;9.838;2022-12-18T05:04:54;17.60;;;10.68;;
75820;SDS011;64454;51.984;9.838;2022-12-18T05:07:21;14.20;;;9.82;;
75820;SDS011;64454;51.984;9.838;2022-12-18T05:09:50;18.70;;;8.88;;
75820;SDS011;64454;51.984;9.838;2022-12-18T05:12:16;19.85;;;10.73;;
75820;SDS011;64454;51.984;9.838;2022-12-18T05:14:43;21.52;;;11.77;;
75820;SDS011;64454;51.984;9.838;2022-12-18T05:17:10;18.65;;;10.80;;
75820;SDS011;64454;51.984;9.838;2022-12-18T05:19:37;16.20;;;10.40;;
75820;SDS011;64454;51.984;9.838;2022-12-18T05:22:04;23.48;;;12.77;;
75820;SDS011;64454;51.984;9.838;2022-12-18T05:24:31;16.77;;;10.23;;
75820;SDS011;64454;51.984;9.838;2022-12-18T05:27:00;22.15;;;11.50;;
75820;SDS011;64454;51.984;9.838;2022-12-18T05:29:26;19.75;;;10.50;;
75820;SDS011;64454;51.984;9.838;2022-12-18T05:31:53;22.92;;;11.68;;
75820;SDS011;64454;51.984;9.838;2022-12-18T05:34:20;21.40;;;11.90;;
75820;SDS011;64454;51.984;9.838;2022-12-18T05:36:47;20.40;;;11.00;;
75820;SDS011;64454;51.984;9.838;2022-12-18T05:39:14;16.58;;;10.50;;
75820;SDS011;64454;51.984;9.838;2022-12-18T05:41:42;16.50;;;11.13;;
75820;SDS011;64454;51.984;9.838;2022-12-18T05:44:10;18.40;;;10.80;;
75820;SDS011;64454;51.984;9.838;2022-12-18T05:46:37;16.20;;;10.17;;
75820;SDS011;64454;51.984;9.838;2022-12-18T05:49:07;17.27;;;10.30;;
75820;SDS011;64454;51.984;9.838;2022-12-18T05:51:36;15.55;;;10.50;;
75820;SDS011;64454;51.984;9.838;2022-12-18T05:54:03;15.00;;;9.60;;
75820;SDS011;64454;51.984;9.838;2022-12-18T05:56:30;45.08;;;24.45;;
75820;SDS011;64454;51.984;9.838;2022-12-18T05:58:57;24.65;;;13.02;;
75820;SDS011;64454;51.984;9.838;2022-12-18T06:01:26;40.50;;;22.23;;
75820;SDS011;64454;51.984;9.838;2022-12-18T06:03:53;32.85;;;19.08;;
75820;SDS011;64454;51.984;9.838;2022-12-18T06:06:21;24.40;;;13.87;;
75820;SDS011;64454;51.984;9.838;2022-12-18T06:08:51;27.23;;;15.40;;
75820;SDS011;64454;51.984;9.838;2022-12-18T06:11:19;26.63;;;15.83;;
75820;SDS011;64454;51.984;9.838;2022-12-18T06:13:49;18.33;;;12.07;;
75820;SDS011;64454;51.984;9.838;2022-12-18T06:16:17;29.48;;;16.10;;
75820;SDS011;64454;51.984;9.838;2022-12-18T06:18:45;26.48;;;14.75;;
75820;SDS011;64454;51.984;9.838;2022-12-18T06:21:12;26.73;;;13.70;;
75820;SDS011;64454;51.984;9.838;2022-12-18T06:23:39;19.15;;;11.63;;
75820;SDS011;64454;51.984;9.838;2022-12-18T06:26:07;21.95;;;12.05;;
75820;SDS011;64454;51.984;9.838;2022-12-18T06:28:37;16.73;;;9.13;;
75820;SDS011;64454;51.984;9.838;2022-12-18T06:31:04;14.50;;;9.55;;
75820;SDS011;64454;51.984;9.838;2022-12-18T06:33:33;15.50;;;9.90;;
75820;SDS011;64454;51.984;9.838;2022-12-18T06:36:02;13.75;;;9.07;;
75820;SDS011;64454;51.984;9.838;2022-12-18T06:38:32;13.13;;;8.80;;
75820;SDS011;64454;51.984;9.838;2022-12-18T06:41:05;16.15;;;8.80;;
75820;SDS011;64454;51.984;9.838;2022-12-18T06:43:33;15.15;;;9.45;;
75820;SDS011;64454;51.984;9.838;2022-12-18T06:46:00;16.50;;;9.38;;
75820;SDS011;64454;51.984;9.838;2022-12-18T06:48:29;11.43;;;7.57;;
75820;SDS011;64454;51.984;9.838;2022-12-18T06:50:57;14.75;;;9.30;;
75820;SDS011;64454;51.984;9.838;2022-12-18T06:53:25;15.00;;;9.57;;
75820;SDS011;64454;51.984;9.838;2022-12-18T06:55:52;16.30;;;9.40;;
75820;SDS011;64454;51.984;9.838;2022-12-18T06:58:26;17.48;;;10.93;;
75820;SDS011;64454;51.984;9.838;2022-12-18T07:00:53;13.05;;;8.60;;
75820;SDS011;64454;51.984;9.838;2022-12-18T07:03:25;11.07;;;8.50;;
75820;SDS011;64454;51.984;9.838;2022-12-18T07:05:52;14.10;;;9.07;;
75820;SDS011;64454;51.984;9.838;2022-12-18T07:08:19;13.63;;;9.00;;
75820;SDS011;64454;51.984;9.838;2022-12-18T07:10:48;14.23;;;9.68;;
75820;SDS011;64454;51.984;9.838;2022-12-18T07:13:15;15.57;;;9.57;;
75820;SDS011;64454;51.984;9.838;2022-12-18T07:15:42;18.27;;;13.25;;
75820;SDS011;64454;51.984;9.838;2022-12-18T07:18:09;17.60;;;12.52;;
75820;SDS011;64454;51.984;9.838;2022-12-18T07:20:36;14.48;;;10.20;;
75820;SDS011;64454;51.984;9.838;2022-12-18T07:23:03;16.50;;;11.10;;
75820;SDS011;64454;51.984;9.838;2022-12-18T07:25:33;14.77;;;10.77;;
75820;SDS011;64454;51.984;9.838;2022-12-18T07:28:01;14.27;;;9.75;;
75820;SDS011;64454;51.984;9.838;2022-12-18T07:30:29;14.77;;;10.15;;
75820;SDS011;64454;51.984;9.838;2022-12-18T07:32:56;15.70;;;10.45;;
75820;SDS011;64454;51.984;9.838;2022-12-18T07:35:23;13.50;;;9.30;;
75820;SDS011;64454;51.984;9.838;2022-12-18T07:37:50;12.48;;;8.65;;
75820;SDS011;64454;51.984;9.838;2022-12-18T07:40:17;15.23;;;9.20;;
75820;SDS011;64454;51.984;9.838;2022-12-18T07:42:44;16.95;;;9.50;;
75820;SDS011;64454;51.984;9.838;2022-12-18T07:45:12;14.20;;;8.80;;
75820;SDS011;64454;51.984;9.838;2022-12-18T07:47:39;14.85;;;9.13;;
75820;SDS011;64454;51.984;9.838;2022-12-18T07:50:07;16.30;;;9.43;;
75820;SDS011;64454;51.984;9.838;2022-12-18T07:52:34;17.08;;;10.25;;
75820;SDS011;64454;51.984;9.838;2022-12-18T07:55:01;18.10;;;10.45;;
75820;SDS011;64454;51.984;9.838;2022-12-18T07:57:29;15.05;;;10.30;;
75820;SDS011;64454;51.984;9.838;2022-12-18T07:59:56;18.58;;;12.30;;
75820;SDS011;64454;51.984;9.838;2022-12-18T08:02:24;15.95;;;10.43;;
75820;SDS011;64454;51.984;9.838;2022-12-18T08:04:51;13.82;;;8.95;;
75820;SDS011;64454;51.984;9.838;2022-12-18T08:07:18;14.32;;;8.65;;
75820;SDS011;64454;51.984;9.838;2022-12-18T08:09:45;15.45;;;9.07;;
75820;SDS011;64454;51.984;9.838;2022-12-18T08:12:11;15.20;;;9.50;;
75820;SDS011;64454;51.984;9.838;2022-12-18T08:14:38;14.48;;;9.52;;
75820;SDS011;64454;51.984;9.838;2022-12-18T08:17:05;12.55;;;8.40;;
75820;SDS011;64454;51.984;9.838;2022-12-18T08:19:33;12.48;;;7.95;;
75820;SDS011;64454;51.984;9.838;2022-12-18T08:22:00;13.10;;;8.30;;
75820;SDS011;64454;51.984;9.838;2022-12-18T08:24:27;12.65;;;7.85;;
75820;SDS011;64454;51.984;9.838;2022-12-18T08:26:54;11.27;;;8.02;;
75820;SDS011;64454;51.984;9.838;2022-12-18T08:29:22;11.25;;;7.63;;
75820;SDS011;64454;51.984;9.838;2022-12-18T08:31:49;10.80;;;7.53;;
75820;SDS011;64454;51.984;9.838;2022-12-18T08:34:15;11.63;;;7.47;;
75820;SDS011;64454;51.984;9.838;2022-12-18T08:36:44;10.50;;;7.82;;
75820;SDS011;64454;51.984;9.838;2022-12-18T08:39:11;15.18;;;9.13;;
75820;SDS011;64454;51.984;9.838;2022-12-18T08:41:38;14.00;;;8.57;;
75820;SDS011;64454;51.984;9.838;2022-12-18T08:44:06;11.85;;;8.57;;
75820;SDS011;64454;51.984;9.838;2022-12-18T08:46:51;13.45;;;10.45;;
75820;SDS011;64454;51.984;9.838;2022-12-18T08:49:18;13.13;;;9.50;;
75820;SDS011;64454;51.984;9.838;2022-12-18T08:51:46;11.55;;;8.45;;
75820;SDS011;64454;51.984;9.838;2022-12-18T08:54:13;14.45;;;9.00;;
75820;SDS011;64454;51.984;9.838;2022-12-18T08:56:40;13.27;;;9.47;;
75820;SDS011;64454;51.984;9.838;2022-12-18T08:59:07;11.97;;;9.57;;
75820;SDS011;64454;51.984;9.838;2022-12-18T09:01:35;11.90;;;9.50;;
75820;SDS011;64454;51.984;9.838;2022-12-18T09:04:02;12.13;;;8.82;;
75820;SDS011;64454;51.984;9.838;2022-12-18T09:06:29;12.90;;;9.60;;
75820;SDS011;64454;51.984;9.838;2022-12-18T09:08:58;12.95;;;8.73;;
75820;SDS011;64454;51.984;9.838;2022-12-18T09:11:26;14.20;;;9.05;;
75820;SDS011;64454;51.984;9.838;2022-12-18T09:13:54;11.38;;;8.55;;
75820;SDS011;64454;51.984;9.838;2022-12-18T09:16:22;13.90;;;9.70;;
75820;SDS011;64454;51.984;9.838;2022-12-18T09:18:51;13.25;;;9.40;;
75820;SDS011;64454;51.984;9.838;2022-12-18T09:21:24;13.75;;;9.57;;
75820;SDS011;64454;51.984;9.838;2022-12-18T09:23:53;13.00;;;9.57;;
75820;SDS011;64454;51.984;9.838;2022-12-18T09:26:23;12.40;;;8.77;;
75820;SDS011;64454;51.984;9.838;2022-12-18T09:28:51;11.38;;;8.52;;
75820;SDS011;64454;51.984;9.838;2022-12-18T09:31:19;12.52;;;8.90;;
75820;SDS011;64454;51.984;9.838;2022-12-18T09:33:48;12.93;;;9.68;;
75820;SDS011;64454;51.984;9.838;2022-12-18T09:36:15;13.18;;;9.63;;
75820;SDS011;64454;51.984;9.838;2022-12-18T09:38:44;11.85;;;9.32;;
75820;SDS011;64454;51.984;9.838;2022-12-18T09:41:16;11.23;;;8.60;;
75820;SDS011;64454;51.984;9.838;2022-12-18T09:44:02;12.52;;;8.70;;
75820;SDS011;64454;51.984;9.838;2022-12-18T09:46:43;11.70;;;8.00;;
75820;SDS011;64454;51.984;9.838;2022-12-18T09:49:14;10.50;;;8.00;;
75820;SDS011;64454;51.984;9.838;2022-12-18T09:51:47;10.57;;;7.90;;
75820;SDS011;64454;51.984;9.838;2022-12-18T09:54:20;10.98;;;7.43;;
75820;SDS011;64454;51.984;9.838;2022-12-18T09:56:53;9.33;;;6.70;;
75820;SDS011;64454;51.984;9.838;2022-12-18T09:59:22;7.45;;;5.97;;
75820;SDS011;64454;51.984;9.838;2022-12-18T10:01:55;9.18;;;6.85;;
75820;SDS011;64454;51.984;9.838;2022-12-18T10:04:23;7.50;;;5.63;;
75820;SDS011;64454;51.984;9.838;2022-12-18T10:06:52;8.40;;;5.53;;
75820;SDS011;64454;51.984;9.838;2022-12-18T10:09:31;9.23;;;5.82;;
75820;SDS011;64454;51.984;9.838;2022-12-18T10:12:07;8.05;;;5.30;;
75820;SDS011;64454;51.984;9.838;2022-12-18T10:14:43;7.82;;;4.75;;
75820;SDS011;64454;51.984;9.838;2022-12-18T10:17:23;7.50;;;4.57;;
75820;SDS011;64454;51.984;9.838;2022-12-18T10:20:02;7.63;;;4.40;;
75820;SDS011;64454;51.984;9.838;2022-12-18T10:22:42;7.20;;;3.78;;
75820;SDS011;64454;51.984;9.838;2022-12-18T10:25:22;7.03;;;4.38;;
75820;SDS011;64454;51.984;9.838;2022-12-18T10:27:57;7.97;;;4.20;;
75820;SDS011;64454;51.984;9.838;2022-12-18T10:30:34;5.72;;;4.47;;
75820;SDS011;64454;51.984;9.838;2022-12-18T10:33:01;6.40;;;4.22;;
75820;SDS011;64454;51.984;9.838;2022-12-18T10:35:29;6.97;;;4.72;;
75820;SDS011;64454;51.984;9.838;2022-12-18T10:38:00;7.72;;;5.20;;
75820;SDS011;64454;51.984;9.838;2022-12-18T10:40:36;6.28;;;5.05;;
75820;SDS011;64454;51.984;9.838;2022-12-18T10:43:20;7.20;;;6.30;;
75820;SDS011;64454;51.984;9.838;2022-12-18T10:46:05;5.00;;;3.55;;
75820;SDS011;64454;51.984;9.838;2022-12-18T10:48:47;3.88;;;3.35;;
75820;SDS011;64454;51.984;9.838;2022-12-18T10:51:20;4.47;;;3.08;;
75820;SDS011;64454;51.984;9.838;2022-12-18T10:53:54;6.45;;;3.75;;
75820;SDS011;64454;51.984;9.838;2022-12-18T10:56:25;6.35;;;3.72;;
75820;SDS011;64454;51.984;9.838;2022-12-18T10:58:57;4.40;;;3.20;;
75820;SDS011;64454;51.984;9.838;2022-12-18T11:01:30;5.30;;;3.90;;
75820;SDS011;64454;51.984;9.838;2022-12-18T11:04:16;5.60;;;4.20;;
75820;SDS011;64454;51.984;9.838;2022-12-18T11:06:54;7.70;;;4.30;;
75820;SDS011;64454;51.984;9.838;2022-12-18T11:09:24;4.97;;;4.00;;
75820;SDS011;64454;51.984;9.838;2022-12-18T11:11:54;8.60;;;4.43;;
75820;SDS011;64454;51.984;9.838;2022-12-18T11:14:26;7.13;;;4.10;;
75820;SDS011;64454;51.984;9.838;2022-12-18T11:16:57;5.77;;;3.80;;
75820;SDS011;64454;51.984;9.838;2022-12-18T11:19:29;5.40;;;3.90;;
75820;SDS011;64454;51.984;9.838;2022-12-18T11:22:00;7.15;;;3.90;;
75820;SDS011;64454;51.984;9.838;2022-12-18T11:24:43;7.43;;;4.13;;
75820;SDS011;64454;51.984;9.838;2022-12-18T11:27:19;6.57;;;3.85;;
75820;SDS011;64454;51.984;9.838;2022-12-18T11:29:49;6.10;;;4.03;;
75820;SDS011;64454;51.984;9.838;2022-12-18T11:32:31;7.35;;;3.83;;
75820;SDS011;64454;51.984;9.838;2022-12-18T11:35:03;5.85;;;4.10;;
75820;SDS011;64454;51.984;9.838;2022-12-18T11:37:43;8.50;;;5.95;;
75820;SDS011;64454;51.984;9.838;2022-12-18T11:40:17;5.78;;;4.60;;
75820;SDS011;64454;51.984;9.838;2022-12-18T11:42:53;7.25;;;5.22;;
75820;SDS011;64454;51.984;9.838;2022-12-18T11:45:29;7.38;;;5.28;;
75820;SDS011;64454;51.984;9.838;2022-12-18T11:48:02;13.50;;;8.05;;
75820;SDS011;64454;51.984;9.838;2022-12-18T11:50:41;7.07;;;5.25;;
75820;SDS011;64454;51.984;9.838;2022-12-18T11:53:15;7.47;;;4.40;;
75820;SDS011;64454;51.984;9.838;2022-12-18T11:55:45;6.72;;;5.72;;
75820;SDS011;64454;51.984;9.838;2022-12-18T11:58:27;8.97;;;6.70;;
75820;SDS011;64454;51.984;9.838;2022-12-18T12:01:13;6.00;;;4.70;;
75820;SDS011;64454;51.984;9.838;2022-12-18T12:04:11;6.07;;;4.57;;
75820;SDS011;64454;51.984;9.838;2022-12-18T12:06:56;5.25;;;3.70;;
75820;SDS011;64454;51.984;9.838;2022-12-18T12:09:37;6.18;;;3.72;;
75820;SDS011;64454;51.984;9.838;2022-12-18T12:12:23;4.57;;;3.40;;
75820;SDS011;64454;51.984;9.838;2022-12-18T12:15:13;5.63;;;3.42;;
75820;SDS011;64454;51.984;9.838;2022-12-18T12:17:58;4.28;;;2.95;;
75820;SDS011;64454;51.984;9.838;2022-12-18T12:20:42;6.22;;;3.90;;
75820;SDS011;64454;51.984;9.838;2022-12-18T12:23:22;5.50;;;3.50;;
75820;SDS011;64454;51.984;9.838;2022-12-18T12:26:01;7.35;;;4.70;;
75820;SDS011;64454;51.984;9.838;2022-12-18T12:31:31;6.10;;;3.95;;
75820;SDS011;64454;51.984;9.838;2022-12-18T12:34:21;4.00;;;3.50;;
75820;SDS011;64454;51.984;9.838;2022-12-18T12:36:57;5.87;;;3.73;;
75820;SDS011;64454;51.984;9.838;2022-12-18T12:39:38;4.78;;;3.40;;
75820;SDS011;64454;51.984;9.838;2022-12-18T12:42:13;6.67;;;4.20;;
75820;SDS011;64454;51.984;9.838;2022-12-18T12:45:06;4.85;;;3.55;;
75820;SDS011;64454;51.984;9.838;2022-12-18T12:47:44;5.18;;;3.20;;
75820;SDS011;64454;51.984;9.838;2022-12-18T12:50:17;6.43;;;3.13;;
75820;SDS011;64454;51.984;9.838;2022-12-18T12:52:47;7.72;;;3.90;;
75820;SDS011;64454;51.984;9.838;2022-12-18T12:55:19;7.13;;;3.78;;
75820;SDS011;64454;51.984;9.838;2022-12-18T12:57:53;4.45;;;3.20;;
75820;SDS011;64454;51.984;9.838;2022-12-18T13:00:30;6.85;;;3.80;;
75820;SDS011;64454;51.984;9.838;2022-12-18T13:03:08;5.43;;;3.60;;
75820;SDS011;64454;51.984;9.838;2022-12-18T13:05:52;6.75;;;4.00;;
75820;SDS011;64454;51.984;9.838;2022-12-18T13:08:26;5.15;;;3.17;;
75820;SDS011;64454;51.984;9.838;2022-12-18T13:10:57;5.65;;;3.83;;
75820;SDS011;64454;51.984;9.838;2022-12-18T13:13:49;6.05;;;4.43;;
75820;SDS011;64454;51.984;9.838;2022-12-18T13:16:18;7.75;;;5.28;;
75820;SDS011;64454;51.984;9.838;2022-12-18T13:18:50;9.00;;;4.90;;
75820;SDS011;64454;51.984;9.838;2022-12-18T13:21:23;8.53;;;5.23;;
75820;SDS011;64454;51.984;9.838;2022-12-18T13:23:54;7.55;;;5.20;;
75820;SDS011;64454;51.984;9.838;2022-12-18T13:26:31;5.80;;;3.50;;
75820;SDS011;64454;51.984;9.838;2022-12-18T13:29:01;6.13;;;4.30;;
75820;SDS011;64454;51.984;9.838;2022-12-18T13:31:57;5.70;;;5.10;;
75820;SDS011;64454;51.984;9.838;2022-12-18T13:34:26;6.00;;;4.30;;
75820;SDS011;64454;51.984;9.838;2022-12-18T13:36:57;7.10;;;6.40;;
75820;SDS011;64454;51.984;9.838;2022-12-18T13:43:33;6.28;;;4.10;;
75820;SDS011;64454;51.984;9.838;2022-12-18T13:46:18;3.95;;;2.90;;
75820;SDS011;64454;51.984;9.838;2022-12-18T13:48:56;3.40;;;2.73;;
75820;SDS011;64454;51.984;9.838;2022-12-18T13:51:27;5.68;;;3.17;;
75820;SDS011;64454;51.984;9.838;2022-12-18T13:53:59;4.20;;;2.87;;
75820;SDS011;64454;51.984;9.838;2022-12-18T13:56:32;4.93;;;3.30;;
75820;SDS011;64454;51.984;9.838;2022-12-18T13:59:03;6.43;;;3.97;;
75820;SDS011;64454;51.984;9.838;2022-12-18T14:01:41;4.80;;;3.05;;
75820;SDS011;64454;51.984;9.838;2022-12-18T14:04:12;8.23;;;4.10;;
75820;SDS011;64454;51.984;9.838;2022-12-18T14:06:47;4.32;;;3.22;;
75820;SDS011;64454;51.984;9.838;2022-12-18T14:09:24;5.50;;;3.47;;
75820;SDS011;64454;51.984;9.838;2022-12-18T14:11:54;4.55;;;3.28;;
75820;SDS011;64454;51.984;9.838;2022-12-18T14:14:37;5.78;;;3.20;;
75820;SDS011;64454;51.984;9.838;2022-12-18T14:17:10;3.78;;;3.05;;
75820;SDS011;64454;51.984;9.838;2022-12-18T14:19:40;6.50;;;3.08;;
75820;SDS011;64454;51.984;9.838;2022-12-18T14:22:14;5.47;;;3.25;;
75820;SDS011;64454;51.984;9.838;2022-12-18T14:24:45;6.78;;;3.35;;
75820;SDS011;64454;51.984;9.838;2022-12-18T14:27:19;5.75;;;3.50;;
75820;SDS011;64454;51.984;9.838;2022-12-18T14:29:49;5.82;;;3.50;;
75820;SDS011;64454;51.984;9.838;2022-12-18T14:32:17;7.18;;;3.88;;
75820;SDS011;64454;51.984;9.838;2022-12-18T14:34:46;5.60;;;3.80;;
75820;SDS011;64454;51.984;9.838;2022-12-18T14:37:15;6.78;;;3.80;;
75820;SDS011;64454;51.984;9.838;2022-12-18T14:39:58;5.22;;;4.03;;
75820;SDS011;64454;51.984;9.838;2022-12-18T14:42:27;7.30;;;4.20;;
75820;SDS011;64454;51.984;9.838;2022-12-18T14:47:59;5.75;;;3.75;;
75820;SDS011;64454;51.984;9.838;2022-12-18T14:50:26;6.20;;;3.95;;
75820;SDS011;64454;51.984;9.838;2022-12-18T14:52:53;5.63;;;3.80;;
75820;SDS011;64454;51.984;9.838;2022-12-18T14:55:21;4.43;;;3.70;;
75820;SDS011;64454;51.984;9.838;2022-12-18T14:57:49;5.40;;;3.63;;
75820;SDS011;64454;51.984;9.838;2022-12-18T15:00:20;4.63;;;3.20;;
75820;SDS011;64454;51.984;9.838;2022-12-18T15:02:50;6.20;;;4.05;;
75820;SDS011;64454;51.984;9.838;2022-12-18T15:05:23;4.88;;;3.45;;
75820;SDS011;64454;51.984;9.838;2022-12-18T15:07:54;5.10;;;3.10;;
75820;SDS011;64454;51.984;9.838;2022-12-18T15:10:25;4.72;;;3.10;;
75820;SDS011;64454;51.984;9.838;2022-12-18T15:13:06;3.45;;;2.63;;